createdAt,value
2022-09-22T00:00:13.668Z,16.50
2022-09-22T00:01:02.013Z,16.50
2022-09-22T00:01:37.578Z,16.50
2022-09-22T00:02:09.484Z,16.50
2022-09-22T00:02:41.294Z,16.50
2022-09-22T00:03:13.071Z,16.50
2022-09-22T00:03:50.654Z,17.90
2022-09-22T00:04:22.433Z,16.50
2022-09-22T00:04:54.217Z,16.40
2022-09-22T00:05:26.177Z,16.40
2022-09-22T00:06:03.680Z,16.40
2022-09-22T00:06:38.921Z,16.40
2022-09-22T00:07:10.772Z,16.40
2022-09-22T00:07:42.531Z,16.40
2022-09-22T00:08:14.320Z,16.40
2022-09-22T00:08:48.907Z,16.40
2022-09-22T00:09:21.653Z,16.40
2022-09-22T00:09:53.676Z,16.40
2022-09-22T00:10:25.480Z,16.40
2022-09-22T00:11:20.265Z,16.40
2022-09-22T00:11:53.922Z,16.40
2022-09-22T00:12:25.783Z,16.40
2022-09-22T00:12:57.642Z,16.40
2022-09-22T00:13:30.941Z,16.40
2022-09-22T00:14:10.397Z,16.40
2022-09-22T00:14:42.310Z,16.40
2022-09-22T00:15:14.316Z,16.40
2022-09-22T00:15:46.832Z,16.30
2022-09-22T00:16:22.367Z,16.40
2022-09-22T00:17:01.040Z,16.40
2022-09-22T00:17:33.003Z,16.30
2022-09-22T00:18:04.767Z,16.30
2022-09-22T00:18:36.716Z,16.30
2022-09-22T00:19:10.630Z,16.30
2022-09-22T00:19:42.557Z,16.30
2022-09-22T00:20:14.631Z,16.30
2022-09-22T00:20:46.480Z,16.30
2022-09-22T00:21:20.513Z,16.30
2022-09-22T00:21:53.024Z,16.30
2022-09-22T00:22:25.990Z,16.30
2022-09-22T00:22:57.774Z,16.30
2022-09-22T00:23:29.877Z,16.30
2022-09-22T00:24:03.070Z,16.30
2022-09-22T00:24:35.191Z,16.30
2022-09-22T00:25:08.814Z,16.30
2022-09-22T00:25:41.218Z,16.30
2022-09-22T00:26:17.223Z,16.30
2022-09-22T00:26:49.894Z,16.30
2022-09-22T00:27:21.737Z,16.30
2022-09-22T00:27:54.494Z,16.20
2022-09-22T00:28:26.454Z,14.60
2022-09-22T00:29:01.399Z,16.20
2022-09-22T00:29:33.409Z,16.20
2022-09-22T00:30:07.059Z,16.20
2022-09-22T00:30:42.994Z,16.20
2022-09-22T00:31:18.941Z,16.20
2022-09-22T00:31:51.861Z,16.30
2022-09-22T00:32:23.656Z,16.20
2022-09-22T00:32:55.433Z,16.20
2022-09-22T00:33:27.176Z,16.20
2022-09-22T00:33:59.030Z,16.20
2022-09-22T00:34:30.820Z,16.20
2022-09-22T00:35:02.661Z,16.20
2022-09-22T00:35:38.041Z,16.20
2022-09-22T00:36:10.250Z,16.20
2022-09-22T00:36:43.016Z,16.20
2022-09-22T00:37:14.949Z,16.20
2022-09-22T00:37:46.816Z,16.20
2022-09-22T00:38:18.559Z,16.20
2022-09-22T00:38:54.413Z,16.20
2022-09-22T00:39:27.513Z,16.20
2022-09-22T00:39:59.262Z,16.20
2022-09-22T00:40:32.358Z,16.10
2022-09-22T00:41:05.383Z,16.10
2022-09-22T00:41:41.860Z,16.10
2022-09-22T00:42:13.938Z,16.10
2022-09-22T00:42:45.895Z,16.10
2022-09-22T00:43:21.259Z,16.10
2022-09-22T00:44:33.985Z,16.10
2022-09-22T00:45:06.334Z,16.10
2022-09-22T00:45:38.277Z,16.10
2022-09-22T00:46:10.167Z,16.10
2022-09-22T00:46:45.880Z,16.10
2022-09-22T00:47:29.524Z,16.10
2022-09-22T00:48:01.665Z,16.10
2022-09-22T00:48:39.582Z,16.10
2022-09-22T00:49:15.372Z,16.10
2022-09-22T00:50:00.042Z,17.40
2022-09-22T00:50:32.424Z,16.10
2022-09-22T00:51:08.655Z,16.10
2022-09-22T00:51:44.046Z,16.00
2022-09-22T00:52:27.381Z,16.00
2022-09-22T00:53:19.415Z,16.10
2022-09-22T00:53:53.796Z,16.00
2022-09-22T00:54:26.122Z,16.00
2022-09-22T00:55:02.737Z,16.00
2022-09-22T00:55:37.350Z,16.00
2022-09-22T00:56:14.754Z,16.00
2022-09-22T00:56:57.334Z,16.00
2022-09-22T00:57:34.359Z,16.00
2022-09-22T00:58:09.871Z,16.00
2022-09-22T00:58:49.538Z,16.00
2022-09-22T00:59:26.209Z,16.00
2022-09-22T00:59:59.394Z,16.00
2022-09-22T01:00:31.383Z,16.00
2022-09-22T01:01:04.275Z,15.90
2022-09-22T01:01:36.885Z,16.00
2022-09-22T01:02:09.094Z,15.90
2022-09-22T01:02:41.852Z,15.90
2022-09-22T01:03:19.781Z,15.90
2022-09-22T01:03:51.907Z,15.90
2022-09-22T01:04:24.191Z,15.80
2022-09-22T01:04:56.957Z,15.90
2022-09-22T01:05:31.838Z,15.90
2022-09-22T01:06:06.770Z,15.90
2022-09-22T01:06:40.823Z,15.90
2022-09-22T01:07:13.067Z,15.90
2022-09-22T01:07:49.829Z,15.90
2022-09-22T01:08:24.974Z,15.90
2022-09-22T01:08:58.423Z,15.90
2022-09-22T01:09:34.310Z,15.90
2022-09-22T01:10:07.671Z,15.80
2022-09-22T01:10:40.312Z,15.90
2022-09-22T01:11:15.653Z,15.80
2022-09-22T01:11:47.603Z,15.80
2022-09-22T01:12:19.935Z,15.80
2022-09-22T01:13:20.232Z,15.80
2022-09-22T01:14:07.438Z,15.80
2022-09-22T01:14:42.065Z,15.80
2022-09-22T01:15:28.439Z,15.80
2022-09-22T01:16:12.061Z,15.80
2022-09-22T01:16:49.794Z,15.90
2022-09-22T01:17:33.519Z,15.80
2022-09-22T01:18:19.900Z,15.80
2022-09-22T01:19:25.909Z,15.80
2022-09-22T01:20:19.731Z,15.80
2022-09-22T01:21:15.959Z,15.80
2022-09-22T01:22:03.746Z,15.70
2022-09-22T01:23:00.407Z,15.70
2022-09-22T01:23:44.585Z,15.70
2022-09-22T01:24:31.129Z,15.80
2022-09-22T01:25:33.392Z,14.30
2022-09-22T01:26:24.136Z,15.70
2022-09-22T01:27:07.789Z,15.70
2022-09-22T01:27:56.594Z,15.70
2022-09-22T01:28:50.084Z,15.70
2022-09-22T01:29:46.257Z,15.70
2022-09-22T01:30:22.356Z,18.80
2022-09-22T01:31:12.059Z,15.70
2022-09-22T01:32:07.192Z,15.70
2022-09-22T01:32:58.413Z,15.70
2022-09-22T01:33:50.518Z,15.60
2022-09-22T01:34:37.259Z,15.60
2022-09-22T01:35:55.227Z,15.70
2022-09-22T01:36:51.322Z,15.60
2022-09-22T01:37:56.215Z,15.60
2022-09-22T01:38:52.210Z,15.60
2022-09-22T01:39:38.001Z,15.60
2022-09-22T01:40:17.938Z,15.60
2022-09-22T01:41:00.156Z,15.60
2022-09-22T01:41:34.682Z,15.50
2022-09-22T01:42:19.562Z,15.50
2022-09-22T01:43:00.646Z,15.60
2022-09-22T01:43:38.397Z,15.60
2022-09-22T01:44:22.237Z,15.60
2022-09-22T01:45:12.051Z,15.50
2022-09-22T01:45:48.721Z,15.50
2022-09-22T01:46:41.213Z,15.50
2022-09-22T01:47:24.541Z,15.50
2022-09-22T01:48:09.082Z,15.50
2022-09-22T01:49:20.620Z,15.50
2022-09-22T01:49:58.114Z,15.50
2022-09-22T01:50:43.489Z,15.50
2022-09-22T01:51:27.697Z,15.40
2022-09-22T01:52:07.938Z,15.50
2022-09-22T01:52:42.489Z,15.50
2022-09-22T01:53:18.629Z,15.50
2022-09-22T01:54:19.453Z,15.50
2022-09-22T01:55:06.080Z,15.40
2022-09-22T01:55:41.558Z,15.50
2022-09-22T01:56:16.341Z,15.40
2022-09-22T01:56:57.793Z,15.40
2022-09-22T01:58:12.020Z,15.40
2022-09-22T02:40:15.721Z,15.40
2022-09-22T02:42:33.617Z,15.40
2022-09-22T02:43:14.223Z,15.30
2022-09-22T02:45:59.447Z,15.30
2022-09-22T11:31:55.793Z,17.60
2022-09-22T11:32:36.522Z,17.60
2022-09-22T11:33:36.026Z,17.60
2022-09-22T11:34:56.144Z,17.70
2022-09-22T11:48:32.886Z,18.00
2022-09-22T11:49:38.134Z,18.00
2022-09-22T11:50:18.455Z,18.10
2022-09-22T11:51:11.805Z,18.10
2022-09-22T11:52:47.890Z,18.10
2022-09-22T11:54:11.140Z,18.20
2022-09-22T12:25:44.683Z,19.00
2022-09-22T12:54:23.068Z,19.60
2022-09-22T12:55:18.518Z,19.50
2022-09-22T12:55:54.663Z,19.50
2022-09-22T12:56:46.441Z,19.50
2022-09-22T12:57:23.351Z,19.50
2022-09-22T12:58:01.303Z,19.50
2022-09-22T12:58:33.022Z,19.50
2022-09-22T12:59:36.624Z,19.50
2022-09-22T13:00:20.540Z,19.50
2022-09-22T13:00:55.392Z,19.50
2022-09-22T13:01:32.839Z,19.50
2022-09-22T13:02:15.684Z,19.50
2022-09-22T13:02:49.735Z,19.50
2022-09-22T13:03:27.342Z,19.50
2022-09-22T13:04:25.374Z,19.50
2022-09-22T13:05:00.607Z,19.50
2022-09-22T13:05:34.423Z,19.50
2022-09-22T13:06:21.937Z,19.50
2022-09-22T13:06:55.986Z,19.50
2022-09-22T13:08:18.268Z,19.50
2022-09-22T13:08:52.801Z,19.50
2022-09-22T13:09:26.955Z,19.50
2022-09-22T13:10:26.518Z,19.60
2022-09-22T13:11:01.192Z,19.60
2022-09-22T13:12:11.518Z,19.50
2022-09-22T13:13:39.759Z,19.60
2022-09-22T13:14:57.660Z,19.70
2022-09-22T13:15:47.266Z,19.70
2022-09-22T13:16:52.552Z,19.70
2022-09-22T13:17:46.459Z,19.70
2022-09-22T13:18:40.264Z,19.70
2022-09-22T13:19:57.556Z,19.80
2022-09-22T13:20:34.222Z,19.80
2022-09-22T13:21:14.979Z,19.70
2022-09-22T13:21:48.022Z,19.70
2022-09-22T13:22:20.520Z,19.70
2022-09-22T13:24:00.677Z,19.80
2022-09-22T13:25:31.151Z,19.80
2022-09-22T13:26:41.799Z,19.80
2022-09-22T13:27:14.661Z,19.80
2022-09-22T13:27:46.431Z,19.80
2022-09-22T13:28:21.345Z,19.80
2022-09-22T13:29:18.412Z,19.80
2022-09-22T13:29:59.408Z,19.80
2022-09-22T13:30:32.204Z,19.80
2022-09-22T13:31:16.031Z,19.80
2022-09-22T13:31:55.411Z,19.80
2022-09-22T13:32:28.394Z,19.80
2022-09-22T13:33:00.533Z,19.80
2022-09-22T13:33:34.993Z,19.90
2022-09-22T13:34:25.143Z,19.90
2022-09-22T13:34:56.909Z,19.90
2022-09-22T13:36:19.759Z,19.90
2022-09-22T13:48:21.758Z,19.80
2022-09-22T13:49:55.854Z,20.00
2022-09-22T13:50:27.580Z,19.90
2022-09-22T13:54:31.436Z,20.20
2022-09-22T13:55:23.588Z,20.20
2022-09-22T13:57:04.913Z,20.20
2022-09-22T13:58:16.329Z,20.20
2022-09-22T13:58:51.495Z,20.20
2022-09-22T14:00:00.502Z,20.20
2022-09-22T14:01:01.493Z,20.30
2022-09-22T14:01:32.618Z,20.30
2022-09-22T14:02:11.271Z,20.20
2022-09-22T14:02:45.212Z,20.30
2022-09-22T14:03:21.637Z,20.20
2022-09-22T14:03:55.173Z,20.20
2022-09-22T14:04:27.965Z,20.20
2022-09-22T14:05:07.908Z,20.20
2022-09-22T14:05:49.852Z,20.20
2022-09-22T14:09:03.611Z,20.40
2022-09-22T14:10:48.707Z,20.30
2022-09-22T14:11:30.768Z,20.40
2022-09-22T14:12:03.446Z,20.40
2022-09-22T14:12:35.742Z,20.30
2022-09-22T14:14:03.454Z,20.40
2022-09-22T14:14:35.729Z,20.30
2022-09-22T14:15:32.363Z,20.30
2022-09-22T14:16:13.098Z,20.40
2022-09-22T14:50:27.428Z,20.70
2022-09-22T15:17:56.513Z,20.70
2022-09-22T16:25:56.188Z,20.60
2022-09-22T16:27:02.064Z,20.60
2022-09-22T16:27:34.167Z,20.60
2022-09-22T16:29:44.112Z,20.50
2022-09-22T16:32:58.221Z,20.50
2022-09-22T16:33:30.121Z,20.60
2022-09-22T16:34:35.930Z,20.50
2022-09-22T16:35:41.663Z,20.50
2022-09-22T16:36:13.433Z,20.50
2022-09-22T16:36:46.117Z,20.50
2022-09-22T16:39:33.455Z,20.50
2022-09-22T16:40:37.772Z,20.50
2022-09-22T16:41:18.497Z,20.50
2022-09-22T16:42:23.863Z,20.50
2022-09-22T16:42:56.020Z,20.40
2022-09-22T16:44:01.187Z,20.50
2022-09-22T16:45:05.517Z,20.50
2022-09-22T16:46:30.600Z,20.50
2022-09-22T16:49:16.307Z,20.50
2022-09-22T16:50:23.098Z,20.50
2022-09-22T16:51:28.138Z,20.50
2022-09-22T16:52:00.600Z,20.50
2022-09-22T16:53:07.185Z,20.40
2022-09-22T16:53:39.520Z,20.40
2022-09-22T16:54:46.318Z,20.40
2022-09-22T16:55:18.051Z,20.40
2022-09-22T16:56:27.327Z,20.50
2022-09-22T16:56:59.140Z,20.40
2022-09-22T16:57:30.914Z,20.40
2022-09-22T16:58:37.860Z,20.40
2022-09-22T16:59:09.996Z,20.40
2022-09-22T16:59:41.793Z,20.40
2022-09-22T17:02:26.210Z,20.40
2022-09-22T17:02:58.058Z,20.30
2022-09-22T17:05:41.711Z,20.30
2022-09-22T17:06:16.062Z,20.40
2022-09-22T17:06:48.906Z,20.30
2022-09-22T17:07:20.645Z,20.20
2022-09-22T17:08:27.652Z,20.20
2022-09-22T17:09:00.056Z,20.30
2022-09-22T17:09:32.193Z,20.30
2022-09-22T17:10:06.365Z,20.30
2022-09-22T17:12:51.854Z,20.30
2022-09-22T17:13:27.817Z,20.30
2022-09-22T17:14:02.926Z,20.30
2022-09-22T17:15:12.030Z,20.30
2022-09-22T17:17:06.355Z,20.30
2022-09-22T17:17:40.333Z,20.30
2022-09-22T17:19:20.670Z,20.30
2022-09-22T17:19:52.485Z,20.30
2022-09-22T17:20:56.631Z,20.20
2022-09-22T17:22:38.320Z,20.20
2022-09-22T17:23:10.119Z,20.20
2022-09-22T17:23:41.865Z,20.20
2022-09-22T17:24:14.809Z,20.20
2022-09-22T17:25:51.675Z,20.20
2022-09-22T17:26:58.115Z,20.20
2022-09-22T17:27:29.940Z,20.20
2022-09-22T17:28:01.935Z,20.10
2022-09-22T17:28:34.606Z,20.10
2022-09-22T17:29:06.551Z,20.10
2022-09-22T17:29:38.624Z,20.10
2022-09-22T17:31:14.993Z,20.10
2022-09-22T17:31:49.831Z,20.10
2022-09-22T17:32:23.405Z,20.10
2022-09-22T17:32:55.402Z,20.10
2022-09-22T17:33:28.593Z,20.10
2022-09-22T17:35:11.784Z,20.10
2022-09-22T17:35:43.611Z,20.10
2022-09-22T17:36:19.905Z,20.00
2022-09-22T17:37:58.097Z,20.00
2022-09-22T17:40:15.533Z,20.10
2022-09-22T17:40:47.468Z,20.10
2022-09-22T17:41:23.005Z,20.00
2022-09-22T17:42:59.814Z,20.10
2022-09-22T17:44:38.498Z,20.10
2022-09-22T17:45:42.781Z,20.10
2022-09-22T17:48:11.610Z,20.00
2022-09-22T17:51:59.315Z,19.90
2022-09-22T17:53:22.170Z,19.90
2022-09-22T18:03:26.458Z,19.90
2022-09-22T18:05:41.043Z,19.90
2022-09-22T18:08:32.249Z,19.90
2022-09-22T18:12:56.813Z,19.80
2022-09-22T18:21:33.998Z,19.70
2022-09-22T18:22:47.785Z,19.70
2022-09-22T18:31:45.285Z,19.50
2022-09-22T18:32:19.962Z,19.60
2022-09-22T18:38:19.718Z,19.50
2022-09-22T18:39:27.546Z,19.50
2022-09-22T18:39:59.313Z,19.50
2022-09-22T18:42:14.996Z,19.40
2022-09-22T18:48:57.353Z,19.40
2022-09-22T18:51:49.717Z,19.30
2022-09-22T18:52:23.730Z,19.30
2022-09-22T18:52:56.595Z,19.30
2022-09-22T18:53:28.397Z,19.30
2022-09-22T18:54:40.435Z,19.30
2022-09-22T18:56:56.577Z,19.20
2022-09-22T19:00:45.514Z,19.20
2022-09-22T19:01:18.258Z,19.30
2022-09-22T19:02:23.476Z,19.20
2022-09-22T19:03:27.627Z,19.20
2022-09-22T19:04:32.386Z,19.20
2022-09-22T19:05:04.641Z,19.20
2022-09-22T19:08:48.849Z,19.00
2022-09-22T19:10:59.851Z,19.10
2022-09-22T19:12:09.563Z,19.20
2022-09-22T19:14:21.037Z,19.10
2022-09-22T19:20:28.398Z,19.10
2022-09-22T20:22:21.192Z,18.60
2022-09-22T20:44:38.475Z,18.50
2022-09-22T20:59:49.898Z,18.30
2022-09-22T21:00:22.278Z,18.30
2022-09-22T21:00:55.654Z,18.30
2022-09-22T21:02:00.813Z,18.30
2022-09-22T21:02:32.885Z,18.30
2022-09-22T21:03:04.682Z,18.20
2022-09-22T21:04:14.128Z,18.20
2022-09-22T21:25:34.974Z,18.20
2022-09-22T21:26:40.561Z,18.20
2022-09-22T21:27:46.998Z,18.20
2022-09-22T21:29:23.890Z,18.10
2022-09-22T21:29:55.943Z,18.20
2022-09-22T21:30:27.661Z,18.20
2022-09-22T21:33:44.607Z,18.10
2022-09-22T21:36:17.294Z,18.10
2022-09-22T21:40:10.104Z,18.10
2022-09-22T21:45:02.414Z,18.10
2022-09-22T21:45:34.189Z,18.10
2022-09-22T21:50:37.485Z,18.10
2022-09-22T21:59:22.603Z,18.00
2022-09-22T22:12:09.237Z,18.00
2022-09-22T22:12:41.069Z,18.00
2022-09-22T22:13:46.559Z,18.00
2022-09-22T22:14:19.901Z,18.00
2022-09-22T22:14:51.665Z,17.90
2022-09-22T22:15:24.031Z,17.90
2022-09-22T22:15:59.802Z,17.80
2022-09-22T22:16:44.230Z,17.80
2022-09-22T22:17:15.960Z,17.80
2022-09-22T22:17:47.694Z,17.80
2022-09-22T22:18:20.386Z,17.80
2022-09-22T22:18:52.617Z,17.80
2022-09-22T22:19:26.846Z,17.80
2022-09-22T22:19:58.684Z,17.80
2022-09-22T22:20:30.984Z,17.80
2022-09-22T22:21:08.894Z,17.80
2022-09-22T22:21:42.796Z,17.80
2022-09-22T22:22:47.242Z,17.70
2022-09-22T22:23:55.509Z,17.70
2022-09-22T22:24:30.603Z,17.70
2022-09-22T22:25:04.868Z,17.70
2022-09-22T22:25:37.129Z,17.70
2022-09-22T22:26:21.460Z,17.70
2022-09-22T22:26:57.061Z,17.70
2022-09-22T22:27:29.045Z,17.70
2022-09-22T22:28:00.889Z,17.70
2022-09-22T22:28:32.962Z,17.70
2022-09-22T22:29:04.836Z,17.60
2022-09-22T22:29:40.601Z,14.60
2022-09-22T22:30:13.204Z,17.60
2022-09-22T22:30:45.004Z,17.50
2022-09-22T22:31:19.679Z,17.60
2022-09-22T22:31:52.306Z,17.60
2022-09-22T22:32:24.074Z,17.60
2022-09-22T22:32:55.925Z,17.60
2022-09-22T22:33:27.734Z,17.60
2022-09-22T22:33:59.449Z,17.60
2022-09-22T22:34:31.273Z,17.60
2022-09-22T22:35:03.059Z,17.60
2022-09-22T22:35:34.807Z,17.60
2022-09-22T22:36:08.727Z,17.60
2022-09-22T22:36:41.765Z,17.60
2022-09-22T22:37:13.600Z,17.60
2022-09-22T22:37:46.652Z,17.60
2022-09-22T22:38:18.398Z,14.70
2022-09-22T22:38:52.550Z,17.70
2022-09-22T22:39:24.667Z,17.60
2022-09-22T22:39:56.420Z,17.60
2022-09-22T22:40:28.185Z,17.60
2022-09-22T22:41:06.710Z,17.60
2022-09-22T22:42:11.430Z,17.50
2022-09-22T22:42:43.157Z,17.60
2022-09-22T22:43:16.797Z,17.60
2022-09-22T22:43:48.511Z,17.60
2022-09-22T22:44:20.458Z,17.60
2022-09-22T22:44:52.193Z,17.50
2022-09-22T22:45:24.051Z,17.60
2022-09-22T22:45:56.630Z,17.50
2022-09-22T22:46:29.806Z,17.90
2022-09-22T22:47:01.637Z,17.60
2022-09-22T22:47:34.807Z,17.60
2022-09-22T22:48:06.579Z,17.50
2022-09-22T22:48:38.786Z,17.60
2022-09-22T22:49:13.828Z,17.50
2022-09-22T22:49:45.638Z,17.50
2022-09-22T22:50:17.371Z,17.50
2022-09-22T22:50:49.191Z,17.50
2022-09-22T22:51:21.733Z,17.50
2022-09-22T22:51:53.733Z,17.60
2022-09-22T22:52:25.513Z,17.50
2022-09-22T22:52:57.336Z,17.60
2022-09-22T22:53:29.131Z,17.50
2022-09-22T22:54:01.003Z,17.60
2022-09-22T22:54:32.752Z,17.60
2022-09-22T22:55:05.108Z,16.80
2022-09-22T22:55:38.375Z,17.50
2022-09-22T22:56:16.600Z,17.60
2022-09-22T22:56:51.228Z,17.50
2022-09-22T22:57:23.569Z,17.40
2022-09-22T22:57:55.330Z,17.50
2022-09-22T22:58:30.974Z,17.50
2022-09-22T22:59:02.750Z,17.50
2022-09-22T22:59:35.694Z,17.50
2022-09-22T23:00:08.296Z,17.50
2022-09-22T23:00:40.122Z,17.50
2022-09-22T23:01:23.330Z,17.40
2022-09-22T23:01:55.159Z,17.50
2022-09-22T23:02:30.261Z,17.50
2022-09-22T23:03:01.999Z,18.00
2022-09-22T23:03:33.862Z,17.50
2022-09-22T23:04:07.518Z,17.50
2022-09-22T23:04:39.424Z,17.50
2022-09-22T23:05:12.124Z,17.50
2022-09-22T23:05:44.646Z,17.50
2022-09-22T23:06:19.490Z,17.50
2022-09-22T23:06:51.653Z,17.50
2022-09-22T23:07:23.386Z,17.50
2022-09-22T23:07:55.439Z,17.50
2022-09-22T23:08:28.303Z,17.50
2022-09-22T23:09:00.378Z,17.50
2022-09-22T23:09:32.090Z,17.40
2022-09-22T23:10:06.951Z,17.40
2022-09-22T23:10:38.709Z,17.50
2022-09-22T23:11:17.196Z,20.70
2022-09-22T23:11:49.035Z,17.50
2022-09-22T23:12:53.402Z,17.50
2022-09-22T23:13:26.862Z,17.50
2022-09-22T23:14:03.820Z,17.50
2022-09-22T23:14:36.929Z,17.50
2022-09-22T23:15:09.767Z,17.40
2022-09-22T23:15:41.841Z,13.60
2022-09-22T23:16:14.258Z,17.40
2022-09-22T23:16:49.453Z,17.40
2022-09-22T23:17:21.144Z,17.40
2022-09-22T23:17:52.991Z,17.30
2022-09-22T23:18:24.767Z,17.40
2022-09-22T23:18:59.615Z,17.40
2022-09-22T23:19:31.374Z,17.40
2022-09-22T23:20:06.089Z,17.50
2022-09-22T23:20:37.891Z,17.40
2022-09-22T23:21:12.319Z,17.30
2022-09-22T23:21:45.132Z,17.40
2022-09-22T23:23:23.104Z,17.50
2022-09-22T23:23:54.907Z,17.40
2022-09-22T23:24:26.673Z,17.40
2022-09-22T23:24:59.272Z,17.40
2022-09-22T23:25:33.795Z,17.90
2022-09-22T23:26:07.024Z,17.40
2022-09-22T23:26:40.444Z,17.40
2022-09-22T23:27:12.174Z,17.40
2022-09-22T23:27:48.326Z,17.40
2022-09-22T23:28:20.582Z,17.40
2022-09-22T23:28:52.662Z,17.40
2022-09-22T23:29:24.415Z,17.40
2022-09-22T23:29:57.137Z,17.40
2022-09-22T23:30:29.025Z,17.40
2022-09-22T23:31:03.623Z,17.40
2022-09-22T23:31:35.391Z,17.40
2022-09-22T23:32:07.141Z,17.80
2022-09-22T23:32:40.577Z,17.30
2022-09-22T23:33:12.527Z,17.90
2022-09-22T23:33:46.461Z,17.30
2022-09-22T23:34:19.182Z,17.40
2022-09-22T23:34:50.965Z,15.50
2022-09-22T23:35:22.713Z,17.40
2022-09-22T23:35:59.682Z,17.40
2022-09-22T23:36:31.499Z,17.90
2022-09-22T23:37:03.363Z,17.30
2022-09-22T23:37:35.154Z,17.40
2022-09-22T23:38:09.082Z,17.40
2022-09-22T23:38:41.291Z,17.30
2022-09-22T23:39:13.148Z,17.30
2022-09-22T23:39:44.874Z,19.00
2022-09-22T23:40:16.964Z,17.40
2022-09-22T23:40:48.746Z,17.40
2022-09-22T23:41:21.525Z,17.30
2022-09-22T23:41:53.236Z,17.90
2022-09-22T23:42:25.142Z,17.30
2022-09-22T23:42:59.746Z,17.30
2022-09-22T23:43:33.044Z,17.20
2022-09-22T23:44:08.391Z,17.60
2022-09-22T23:44:40.252Z,17.30
2022-09-22T23:45:11.991Z,17.30
2022-09-22T23:45:43.743Z,17.30
2022-09-22T23:46:15.593Z,17.30
2022-09-22T23:46:47.383Z,17.30
2022-09-22T23:47:19.481Z,17.30
2022-09-22T23:47:51.755Z,17.30
2022-09-22T23:48:24.782Z,17.30
2022-09-22T23:48:56.566Z,17.30
2022-09-22T23:49:28.351Z,17.30
2022-09-22T23:50:00.270Z,17.30
2022-09-22T23:50:32.086Z,17.30
2022-09-22T23:51:04.446Z,17.30
2022-09-22T23:51:36.848Z,17.30
2022-09-22T23:52:41.391Z,17.40
2022-09-22T23:53:14.952Z,17.40
2022-09-22T23:53:46.698Z,17.30
2022-09-22T23:54:18.440Z,17.40
2022-09-22T23:54:50.224Z,17.30
2022-09-22T23:55:22.783Z,17.30
2022-09-22T23:55:54.727Z,17.40
2022-09-22T23:56:26.732Z,17.30
2022-09-22T23:56:58.471Z,17.40
2022-09-22T23:57:30.240Z,17.30
2022-09-22T23:58:02.007Z,17.40
2022-09-22T23:58:34.623Z,17.30
2022-09-22T23:59:06.920Z,17.30
2022-09-22T23:59:41.481Z,17.30
